Time;durP1;ratioP1;P1;durP2;ratioP2;P2;SDS_P1;SDS_P2;PMS_P1;PMS_P2;Temp;Humidity;BMP_temperature;BMP_pressure;BME280_temperature;BME280_humidity;BME280_pressure;Samples;Min_cycle;Max_cycle;Signal;HPM_P1;HPM_P2
2024/01/16 00:01:21;;;;;;;1.63;1.47;;;0.10;99.90;;;;;;5032391;28;20502;-60
2024/01/16 00:03:46;;;;;;;3.77;1.60;;;0.10;99.90;;;;;;5040748;28;20194;-60
2024/01/16 00:06:12;;;;;;;4.10;1.97;;;0.10;99.90;;;;;;5040501;28;20273;-60
2024/01/16 00:08:37;;;;;;;1.93;1.73;;;-0.10;99.90;;;;;;5035705;28;20623;-60
2024/01/16 00:11:03;;;;;;;4.73;2.07;;;0.00;99.90;;;;;;5034598;28;20182;-60
2024/01/16 00:13:29;;;;;;;2.87;1.70;;;0.00;99.90;;;;;;5032427;28;20171;-58
2024/01/16 00:15:56;;;;;;;3.47;1.90;;;0.10;99.90;;;;;;5032589;28;20461;-60
2024/01/16 00:18:22;;;;;;;8.67;2.63;;;0.00;99.90;;;;;;5032939;28;20174;-61
2024/01/16 00:20:49;;;;;;;2.17;1.93;;;-0.10;99.90;;;;;;5032308;28;20470;-61
2024/01/16 00:23:14;;;;;;;1.73;1.43;;;-0.20;99.90;;;;;;5032094;28;20536;-60
2024/01/16 00:25:41;;;;;;;6.50;3.10;;;-0.10;99.90;;;;;;5028544;28;20200;-60
2024/01/16 00:28:06;;;;;;;1.93;1.70;;;-0.10;99.90;;;;;;5032080;28;20179;-60
2024/01/16 00:30:33;;;;;;;3.67;1.80;;;-0.20;99.90;;;;;;5032041;28;20414;-59
2024/01/16 00:32:59;;;;;;;4.07;3.60;;;-0.20;99.90;;;;;;5031792;28;20270;-60
2024/01/16 00:35:24;;;;;;;2.50;2.23;;;-0.20;99.90;;;;;;5031749;28;20458;-61
2024/01/16 00:37:50;;;;;;;2.23;1.80;;;-0.20;99.90;;;;;;5032007;28;20210;-60
2024/01/16 00:40:16;;;;;;;3.77;2.20;;;-0.20;99.90;;;;;;5031833;28;20233;-61
2024/01/16 00:42:41;;;;;;;4.33;2.10;;;-0.30;99.90;;;;;;5031656;28;20183;-61
2024/01/16 00:45:07;;;;;;;4.27;1.73;;;-0.40;99.90;;;;;;5029616;28;20253;-61
2024/01/16 00:47:33;;;;;;;3.67;1.40;;;-0.60;99.90;;;;;;5031566;28;20207;-60
2024/01/16 00:50:00;;;;;;;2.87;1.60;;;-0.70;99.90;;;;;;5031841;28;20187;-58
2024/01/16 00:52:26;;;;;;;3.30;1.90;;;-0.80;99.90;;;;;;5022141;28;20183;-60
2024/01/16 00:54:52;;;;;;;5.83;1.67;;;-0.90;99.90;;;;;;5030362;28;20427;-60
2024/01/16 00:57:19;;;;;;;1.73;1.27;;;-1.00;99.90;;;;;;5032825;28;20498;-59
2024/01/16 00:59:45;;;;;;;7.27;1.70;;;-1.00;99.90;;;;;;5031370;28;20191;-58
2024/01/16 01:02:11;;;;;;;3.10;1.53;;;-1.00;99.90;;;;;;5028292;28;20438;-60
2024/01/16 01:04:37;;;;;;;8.83;1.67;;;-1.10;99.90;;;;;;5033886;28;20461;-60
2024/01/16 01:07:03;;;;;;;2.50;1.47;;;-1.10;99.90;;;;;;5031272;28;20445;-60
2024/01/16 01:09:29;;;;;;;2.60;1.27;;;-1.20;99.90;;;;;;5031397;28;20181;-59
2024/01/16 01:11:54;;;;;;;5.20;1.70;;;-1.20;99.90;;;;;;5035605;28;20459;-62
2024/01/16 01:14:20;;;;;;;3.53;1.27;;;-1.20;99.90;;;;;;5031726;28;20194;-62
2024/01/16 01:16:45;;;;;;;5.17;1.20;;;-1.20;99.90;;;;;;5031474;28;20539;-59
2024/01/16 01:19:12;;;;;;;2.33;2.00;;;-1.20;99.90;;;;;;5039580;28;20180;-58
2024/01/16 01:21:38;;;;;;;3.63;1.60;;;-1.20;99.90;;;;;;5033558;28;20225;-60
2024/01/16 01:24:03;;;;;;;4.50;1.47;;;-1.10;99.90;;;;;;5036623;28;20452;-58
2024/01/16 01:26:29;;;;;;;1.33;1.20;;;-1.00;99.90;;;;;;5031031;28;20696;-59
2024/01/16 01:28:54;;;;;;;2.90;1.50;;;-1.00;99.90;;;;;;5031483;28;20210;-59
2024/01/16 01:31:20;;;;;;;1.30;1.20;;;-1.00;99.90;;;;;;5030914;28;20203;-59
2024/01/16 01:33:46;;;;;;;2.17;1.53;;;-1.00;99.90;;;;;;5031099;28;20187;-59
2024/01/16 01:36:11;;;;;;;1.50;1.40;;;-1.00;99.90;;;;;;5036250;28;20191;-58
2024/01/16 01:38:37;;;;;;;2.90;1.87;;;-1.00;99.90;;;;;;5029151;28;20191;-58
2024/01/16 01:41:02;;;;;;;4.90;1.80;;;-1.10;99.90;;;;;;5035749;28;20590;-61
2024/01/16 01:43:28;;;;;;;1.43;1.33;;;-1.10;99.90;;;;;;5033242;28;20203;-61
2024/01/16 01:46:17;;;;;;;1.80;1.70;;;-1.10;99.90;;;;;;5031505;28;20302;-58
2024/01/16 01:48:44;;;;;;;1.63;1.50;;;-1.10;99.90;;;;;;5030003;28;20244;-59
2024/01/16 01:51:13;;;;;;;2.93;1.67;;;-1.10;99.90;;;;;;5033534;28;20415;-59
2024/01/16 01:53:41;;;;;;;4.37;1.50;;;-1.10;99.90;;;;;;5016907;28;20422;-59
2024/01/16 01:56:11;;;;;;;1.10;1.00;;;-1.10;99.90;;;;;;5020707;28;20450;-61
2024/01/16 01:58:38;;;;;;;1.90;1.57;;;-1.10;99.90;;;;;;5028128;28;20487;-59
2024/01/16 02:01:05;;;;;;;2.20;1.30;;;-1.10;99.90;;;;;;5027691;28;20422;-56
2024/01/16 02:03:39;;;;;;;1.90;1.20;;;-1.00;99.90;;;;;;5023337;28;21505;-58
2024/01/16 02:06:05;;;;;;;3.83;1.67;;;-1.00;99.90;;;;;;5026712;28;20458;-60
2024/01/16 02:08:31;;;;;;;2.90;1.70;;;-1.00;99.90;;;;;;5035690;28;20452;-60
2024/01/16 02:10:57;;;;;;;1.73;1.30;;;-1.00;99.90;;;;;;5033858;28;20478;-59
2024/01/16 02:13:23;;;;;;;1.50;1.37;;;-1.00;99.90;;;;;;5032429;28;20767;-55
2024/01/16 02:15:50;;;;;;;1.47;1.33;;;-1.00;99.90;;;;;;5030788;28;20200;-60
2024/01/16 02:18:16;;;;;;;2.00;1.57;;;-1.00;99.90;;;;;;5028107;28;20433;-60
2024/01/16 02:20:42;;;;;;;2.13;1.80;;;-1.00;99.90;;;;;;5033410;28;20437;-59
2024/01/16 02:23:11;;;;;;;1.97;1.87;;;-1.00;99.90;;;;;;5027337;28;20857;-60
2024/01/16 02:25:37;;;;;;;5.13;2.80;;;-1.00;99.90;;;;;;5031567;28;20418;-60
2024/01/16 02:28:03;;;;;;;2.13;1.70;;;-1.10;99.90;;;;;;5034207;28;20516;-59
2024/01/16 02:30:28;;;;;;;2.23;1.90;;;-1.10;99.90;;;;;;5034244;28;20251;-60
2024/01/16 02:32:54;;;;;;;1.70;1.53;;;-1.00;99.90;;;;;;5040047;28;20417;-60
2024/01/16 02:35:19;;;;;;;3.13;1.67;;;-1.00;99.90;;;;;;5042354;28;20240;-60
2024/01/16 02:37:45;;;;;;;5.70;2.10;;;-1.00;99.90;;;;;;5032850;28;20182;-59
2024/01/16 02:40:11;;;;;;;1.70;1.60;;;-1.00;99.90;;;;;;5034484;28;20183;-60
2024/01/16 02:42:37;;;;;;;3.10;2.20;;;-1.00;99.90;;;;;;5033981;28;20230;-60
2024/01/16 02:45:04;;;;;;;1.60;1.50;;;-1.10;99.90;;;;;;5034344;28;20180;-60
2024/01/16 02:47:30;;;;;;;5.70;1.93;;;-1.20;99.90;;;;;;5033408;28;20820;-60
2024/01/16 02:49:55;;;;;;;2.07;1.40;;;-1.30;99.90;;;;;;5033610;28;20442;-60
2024/01/16 02:52:21;;;;;;;2.20;2.00;;;-1.40;99.90;;;;;;5033729;28;20209;-59
2024/01/16 02:54:47;;;;;;;2.40;1.53;;;-1.50;99.90;;;;;;5033478;28;20657;-60
2024/01/16 02:57:12;;;;;;;3.80;1.87;;;-1.50;99.90;;;;;;5033900;28;20209;-60
2024/01/16 02:59:38;;;;;;;2.00;1.90;;;-1.60;99.90;;;;;;5033544;28;20560;-60
2024/01/16 03:02:04;;;;;;;1.60;1.50;;;-1.70;99.90;;;;;;5033569;28;20718;-60
2024/01/16 03:04:30;;;;;;;1.50;1.40;;;-1.70;99.90;;;;;;5035278;28;20203;-60
2024/01/16 03:06:55;;;;;;;2.53;2.33;;;-1.80;99.90;;;;;;5039870;28;20580;-60
2024/01/16 03:09:22;;;;;;;2.10;1.90;;;-1.80;99.90;;;;;;5031538;28;20429;-60
2024/01/16 03:11:47;;;;;;;4.10;1.73;;;-1.80;99.90;;;;;;5044130;28;20168;-60
2024/01/16 03:14:13;;;;;;;2.47;1.70;;;-1.80;99.90;;;;;;5033847;28;20426;-60
2024/01/16 03:16:44;;;;;;;1.50;1.40;;;-1.80;99.90;;;;;;5033429;28;20278;-60
2024/01/16 03:19:09;;;;;;;2.23;2.03;;;-1.80;99.90;;;;;;5031402;28;20858;-60
2024/01/16 03:21:35;;;;;;;3.00;2.30;;;-1.70;99.90;;;;;;5033056;28;20410;-60
2024/01/16 03:24:01;;;;;;;2.93;2.40;;;-1.70;99.90;;;;;;5039776;28;20583;-60
2024/01/16 03:26:26;;;;;;;4.20;2.00;;;-1.60;99.90;;;;;;5036544;28;20187;-60
2024/01/16 03:28:52;;;;;;;2.73;2.13;;;-1.60;99.90;;;;;;5040115;28;20692;-59
2024/01/16 03:31:21;;;;;;;6.33;2.60;;;-1.50;99.90;;;;;;5032842;28;20510;-60
2024/01/16 03:33:46;;;;;;;3.00;2.30;;;-1.50;99.90;;;;;;5033673;28;20183;-60
2024/01/16 03:36:12;;;;;;;2.77;2.50;;;-1.50;99.90;;;;;;5033046;28;20820;-58
2024/01/16 03:38:39;;;;;;;3.67;2.83;;;-1.40;99.90;;;;;;5031207;28;20708;-58
2024/01/16 03:41:06;;;;;;;4.83;2.80;;;-1.30;99.90;;;;;;5033256;28;20418;-60
2024/01/16 03:43:34;;;;;;;1.80;1.70;;;-1.40;99.90;;;;;;5032864;28;20462;-59
2024/01/16 03:46:00;;;;;;;4.80;2.53;;;-1.40;99.90;;;;;;5032712;28;20471;-59
2024/01/16 03:48:25;;;;;;;2.83;2.00;;;-1.40;99.90;;;;;;5040727;28;20409;-60
2024/01/16 03:50:51;;;;;;;2.77;2.30;;;-1.30;99.90;;;;;;5032987;28;20176;-59
2024/01/16 03:53:17;;;;;;;2.20;2.00;;;-1.30;99.90;;;;;;5028599;28;20183;-60
2024/01/16 03:55:42;;;;;;;2.70;2.50;;;-1.20;99.90;;;;;;5052645;22;20219;-63
2024/01/16 03:58:08;;;;;;;3.20;2.60;;;-1.10;99.90;;;;;;5029013;28;20272;-62
2024/01/16 04:00:33;;;;;;;3.43;2.40;;;-1.20;99.90;;;;;;5026609;28;20179;-62
2024/01/16 04:02:59;;;;;;;3.07;2.53;;;-1.10;99.90;;;;;;5029356;28;20204;-62
2024/01/16 04:05:25;;;;;;;3.57;2.50;;;-1.10;99.90;;;;;;5027746;28;20204;-62
2024/01/16 04:07:50;;;;;;;4.87;2.23;;;-1.10;99.90;;;;;;5018568;28;20237;-60
2024/01/16 04:10:16;;;;;;;2.60;2.10;;;-1.10;99.90;;;;;;5019164;28;20233;-59
2024/01/16 04:12:42;;;;;;;5.30;3.17;;;-1.00;99.90;;;;;;4992879;28;20749;-62
2024/01/16 04:15:08;;;;;;;7.40;2.63;;;-1.00;99.90;;;;;;5009562;28;20176;-62
2024/01/16 04:17:33;;;;;;;2.73;2.20;;;-1.10;99.90;;;;;;5011392;28;20172;-60
2024/01/16 04:19:59;;;;;;;2.47;1.80;;;-1.10;99.90;;;;;;5009742;28;20435;-60
2024/01/16 04:22:24;;;;;;;3.43;2.50;;;-1.20;99.90;;;;;;5010724;28;20181;-62
2024/01/16 04:24:50;;;;;;;7.77;2.30;;;-1.20;99.90;;;;;;5012119;28;20295;-61
2024/01/16 04:27:15;;;;;;;5.73;3.50;;;-1.20;99.90;;;;;;5012679;28;20200;-63
2024/01/16 04:29:41;;;;;;;4.53;1.97;;;-1.20;99.90;;;;;;5013101;28;20188;-61
2024/01/16 04:32:07;;;;;;;4.63;2.53;;;-1.20;99.90;;;;;;5011052;28;20589;-62
2024/01/16 04:34:34;;;;;;;4.10;2.23;;;-1.10;99.90;;;;;;5011930;28;20184;-62
2024/01/16 04:36:59;;;;;;;3.30;2.83;;;-1.10;99.90;;;;;;5014595;28;20992;-60
2024/01/16 04:39:25;;;;;;;3.40;2.70;;;-1.30;99.90;;;;;;5013454;28;20510;-62
2024/01/16 04:41:51;;;;;;;2.80;2.60;;;-1.30;99.90;;;;;;5014975;28;20213;-62
2024/01/16 04:44:16;;;;;;;5.47;2.40;;;-1.30;99.90;;;;;;5022354;28;20199;-62
2024/01/16 04:46:42;;;;;;;2.27;2.07;;;-1.30;99.90;;;;;;5012694;28;20216;-60
2024/01/16 04:49:08;;;;;;;2.27;2.07;;;-1.20;99.90;;;;;;5005121;28;20371;-60
2024/01/16 04:51:34;;;;;;;2.80;2.23;;;-1.30;99.90;;;;;;5011643;28;20432;-63
2024/01/16 04:53:59;;;;;;;3.60;2.43;;;-1.20;99.90;;;;;;5007663;28;20979;-61
2024/01/16 04:56:25;;;;;;;3.17;2.40;;;-1.30;99.90;;;;;;5010049;28;20530;-63
2024/01/16 04:58:52;;;;;;;3.20;2.67;;;-1.30;99.90;;;;;;5009862;28;20199;-62
2024/01/16 05:01:17;;;;;;;4.53;3.10;;;-1.30;99.90;;;;;;5010023;28;20191;-64
2024/01/16 05:03:43;;;;;;;4.13;3.10;;;-1.30;99.90;;;;;;5009796;28;20467;-63
2024/01/16 05:06:15;;;;;;;3.97;3.43;;;-1.30;99.90;;;;;;5016408;28;20199;-61
2024/01/16 05:08:41;;;;;;;2.60;2.40;;;-1.30;99.90;;;;;;5022483;28;20204;-63
2024/01/16 05:11:07;;;;;;;3.20;2.90;;;-1.30;99.90;;;;;;5017566;28;20506;-59
2024/01/16 05:13:33;;;;;;;3.00;2.50;;;-1.30;99.90;;;;;;5023366;28;20839;-62
2024/01/16 05:15:59;;;;;;;5.10;3.60;;;-1.30;99.90;;;;;;5011710;28;20910;-62
2024/01/16 05:18:24;;;;;;;3.70;3.13;;;-1.40;99.90;;;;;;5009914;28;20209;-61
2024/01/16 05:20:50;;;;;;;3.20;2.90;;;-1.40;99.90;;;;;;5007955;28;20654;-61
2024/01/16 05:23:15;;;;;;;4.00;2.80;;;-1.40;99.90;;;;;;5006367;28;20673;-61
2024/01/16 05:25:41;;;;;;;2.53;2.33;;;-1.40;99.90;;;;;;5015257;28;20285;-62
2024/01/16 05:28:07;;;;;;;3.20;2.90;;;-1.30;99.90;;;;;;5014321;28;20673;-60
2024/01/16 05:30:33;;;;;;;3.70;3.30;;;-1.30;99.90;;;;;;5015954;28;20233;-61
2024/01/16 05:33:00;;;;;;;4.00;3.60;;;-1.40;99.90;;;;;;5024306;28;20242;-61
2024/01/16 05:35:27;;;;;;;4.33;3.03;;;-1.30;99.90;;;;;;5019294;28;20481;-62
2024/01/16 05:37:53;;;;;;;5.30;3.43;;;-1.40;99.90;;;;;;5021474;28;20434;-62
2024/01/16 05:40:19;;;;;;;3.10;2.83;;;-1.50;99.90;;;;;;5009417;28;20439;-60
2024/01/16 05:42:45;;;;;;;3.73;3.17;;;-1.50;99.90;;;;;;5009548;28;20523;-61
2024/01/16 05:45:11;;;;;;;4.40;3.90;;;-1.60;99.90;;;;;;5010763;28;20222;-62
2024/01/16 05:47:36;;;;;;;3.37;3.03;;;-1.60;99.90;;;;;;5015691;28;20518;-62
2024/01/16 05:50:02;;;;;;;3.70;2.90;;;-1.60;99.90;;;;;;5009851;28;20593;-62
2024/01/16 05:52:28;;;;;;;6.67;3.73;;;-1.60;99.90;;;;;;5009506;28;20188;-60
2024/01/16 05:54:57;;;;;;;7.00;4.00;;;-1.70;99.90;;;;;;5008151;28;20461;-62
2024/01/16 05:57:23;;;;;;;4.13;3.50;;;-1.70;99.90;;;;;;5009412;28;20661;-62
2024/01/16 05:59:48;;;;;;;5.47;4.10;;;-1.70;99.90;;;;;;5013289;28;20430;-61
2024/01/16 06:02:14;;;;;;;14.00;4.10;;;-1.60;99.90;;;;;;5013709;28;20533;-62
2024/01/16 06:04:40;;;;;;;3.90;3.60;;;-1.70;99.90;;;;;;5013138;28;20227;-61
2024/01/16 06:07:08;;;;;;;4.03;3.30;;;-1.80;99.90;;;;;;5013366;28;20956;-62
2024/01/16 06:09:39;;;;;;;7.30;4.50;;;-1.70;99.90;;;;;;5013352;28;20199;-62
2024/01/16 06:12:06;;;;;;;5.47;3.93;;;-1.80;99.90;;;;;;5019995;28;20534;-62
2024/01/16 06:14:32;;;;;;;5.90;4.43;;;-1.80;99.90;;;;;;5021418;28;20411;-62
2024/01/16 06:16:58;;;;;;;9.67;4.67;;;-1.80;99.90;;;;;;5021182;28;20819;-62
2024/01/16 06:19:24;;;;;;;3.97;3.50;;;-1.70;99.90;;;;;;5021626;28;20815;-62
2024/01/16 06:21:50;;;;;;;3.73;3.43;;;-1.70;99.90;;;;;;5011702;28;20936;-60
2024/01/16 06:24:15;;;;;;;4.63;3.80;;;-1.70;99.90;;;;;;5015781;28;20653;-62
2024/01/16 06:26:42;;;;;;;7.03;4.77;;;-1.70;99.90;;;;;;5012952;28;20226;-61
2024/01/16 06:29:07;;;;;;;12.70;4.77;;;-1.80;99.90;;;;;;5012742;28;20184;-61
2024/01/16 06:31:33;;;;;;;9.70;4.23;;;-1.80;99.90;;;;;;5017278;28;20509;-62
2024/01/16 06:33:59;;;;;;;4.83;4.00;;;-1.70;99.90;;;;;;5012957;28;20273;-63
2024/01/16 06:36:24;;;;;;;8.53;3.90;;;-1.70;99.90;;;;;;5012690;28;20212;-64
2024/01/16 06:38:50;;;;;;;4.63;3.30;;;-1.70;99.90;;;;;;5011071;28;20267;-58
2024/01/16 06:41:15;;;;;;;4.00;3.40;;;-1.70;99.90;;;;;;5012739;28;20271;-61
2024/01/16 06:43:41;;;;;;;4.80;3.27;;;-1.60;99.90;;;;;;5012171;28;20200;-61
2024/01/16 06:46:07;;;;;;;3.50;2.73;;;-1.60;99.90;;;;;;5016725;28;20204;-62
2024/01/16 06:48:35;;;;;;;5.40;4.00;;;-1.60;99.90;;;;;;5011799;28;20185;-61
2024/01/16 06:51:01;;;;;;;4.57;3.57;;;-1.60;99.90;;;;;;5012005;28;20245;-61
2024/01/16 06:53:26;;;;;;;4.43;3.43;;;-1.60;99.90;;;;;;5012299;28;20518;-62
2024/01/16 06:55:52;;;;;;;4.80;3.73;;;-1.70;99.90;;;;;;5012067;28;20211;-61
2024/01/16 06:58:17;;;;;;;8.57;4.30;;;-1.60;99.90;;;;;;5010034;28;20252;-61
2024/01/16 07:00:43;;;;;;;5.50;3.47;;;-1.60;99.90;;;;;;5017184;28;20588;-62
2024/01/16 07:03:09;;;;;;;6.27;3.70;;;-1.60;99.90;;;;;;5018839;28;20208;-61
2024/01/16 07:05:34;;;;;;;4.87;3.37;;;-1.50;99.90;;;;;;5012515;28;20599;-62
2024/01/16 07:08:00;;;;;;;6.60;3.90;;;-1.60;99.90;;;;;;5022713;28;20194;-61
2024/01/16 07:10:26;;;;;;;3.80;3.43;;;-1.50;99.90;;;;;;5011151;28;20168;-62
2024/01/16 07:12:51;;;;;;;3.33;2.60;;;-1.50;99.90;;;;;;5016489;28;20796;-62
2024/01/16 07:15:18;;;;;;;4.87;3.13;;;-1.40;99.90;;;;;;5011783;28;20254;-61
2024/01/16 07:17:43;;;;;;;9.83;3.40;;;-1.40;99.90;;;;;;5012027;28;20606;-62
2024/01/16 07:20:09;;;;;;;5.00;3.70;;;-1.30;99.90;;;;;;5012335;28;20415;-61
2024/01/16 07:22:37;;;;;;;7.77;3.33;;;-1.30;99.90;;;;;;5019004;28;20192;-63
2024/01/16 07:25:02;;;;;;;2.80;2.60;;;-1.40;99.90;;;;;;5012201;28;20483;-63
2024/01/16 07:27:28;;;;;;;4.60;2.80;;;-1.50;99.90;;;;;;5012293;28;20812;-61
2024/01/16 07:29:54;;;;;;;3.40;2.87;;;-1.40;99.90;;;;;;5011332;28;20608;-63
2024/01/16 07:32:19;;;;;;;3.47;3.20;;;-1.30;99.90;;;;;;5011658;28;20180;-62
2024/01/16 07:34:45;;;;;;;5.73;3.77;;;-1.20;99.90;;;;;;5016494;28;20267;-61
2024/01/16 07:37:10;;;;;;;8.60;3.60;;;-1.20;99.90;;;;;;5011149;28;20200;-62
2024/01/16 07:39:36;;;;;;;4.50;3.33;;;-1.30;99.90;;;;;;5009959;28;20255;-62
2024/01/16 07:42:01;;;;;;;8.70;4.20;;;-1.20;99.90;;;;;;5011482;28;20207;-62
2024/01/16 07:44:27;;;;;;;6.40;4.10;;;-1.00;99.90;;;;;;5011697;28;20203;-62
2024/01/16 07:46:53;;;;;;;6.60;4.60;;;-1.20;99.90;;;;;;5015261;28;20207;-63
2024/01/16 07:49:18;;;;;;;5.40;4.33;;;-1.20;99.90;;;;;;5011672;28;20267;-63
2024/01/16 07:51:44;;;;;;;5.30;3.70;;;-1.10;99.90;;;;;;5011035;28;20176;-63
2024/01/16 07:54:10;;;;;;;5.80;4.63;;;-1.10;99.90;;;;;;5010304;28;20187;-63
2024/01/16 07:56:37;;;;;;;7.60;4.30;;;-1.10;99.90;;;;;;5010937;28;20227;-62
2024/01/16 07:59:03;;;;;;;7.57;4.10;;;-0.90;99.90;;;;;;5011239;28;20791;-63
2024/01/16 08:01:29;;;;;;;6.40;5.00;;;-0.90;99.90;;;;;;5015839;28;20441;-62
2024/01/16 08:03:55;;;;;;;5.83;4.20;;;-0.90;99.90;;;;;;5014990;28;20496;-62
2024/01/16 08:06:21;;;;;;;5.60;4.50;;;-0.80;99.90;;;;;;5011250;28;20243;-62
2024/01/16 08:08:48;;;;;;;6.70;5.00;;;-0.70;99.90;;;;;;5010796;28;20478;-62
2024/01/16 08:11:14;;;;;;;8.00;3.97;;;-0.80;99.90;;;;;;5010969;28;20434;-64
2024/01/16 08:13:40;;;;;;;5.20;4.60;;;-0.80;99.90;;;;;;5011400;28;20423;-63
2024/01/16 08:16:06;;;;;;;8.27;4.57;;;-0.60;99.90;;;;;;5010778;28;20447;-61
2024/01/16 08:18:31;;;;;;;6.50;5.03;;;-0.50;99.90;;;;;;5013851;28;20192;-68
2024/01/16 08:20:57;;;;;;;8.93;4.60;;;-0.50;99.90;;;;;;5011226;28;20462;-67
2024/01/16 08:23:23;;;;;;;12.03;6.17;;;-0.50;99.90;;;;;;5010712;28;20521;-65
2024/01/16 08:25:51;;;;;;;7.90;5.50;;;-0.60;99.90;;;;;;5010557;28;20455;-67
2024/01/16 08:28:20;;;;;;;8.63;5.67;;;-0.60;99.90;;;;;;5017136;28;20431;-66
2024/01/16 08:30:45;;;;;;;12.90;6.83;;;-0.50;99.90;;;;;;5010815;28;20783;-63
2024/01/16 08:33:12;;;;;;;7.37;6.10;;;-0.50;99.90;;;;;;5007852;28;20430;-62
2024/01/16 08:35:38;;;;;;;7.13;6.30;;;-0.30;99.90;;;;;;5012780;28;20805;-64
2024/01/16 08:38:04;;;;;;;10.50;7.77;;;-0.30;99.90;;;;;;5010827;28;20506;-60
2024/01/16 08:40:30;;;;;;;10.40;6.50;;;-0.30;99.90;;;;;;5009304;28;20454;-65
2024/01/16 08:42:56;;;;;;;13.30;7.17;;;-0.30;99.90;;;;;;5012856;28;20435;-62
2024/01/16 08:45:21;;;;;;;8.20;5.70;;;-0.30;99.90;;;;;;5019786;28;20465;-64
2024/01/16 08:47:47;;;;;;;7.33;5.27;;;-0.20;99.90;;;;;;5019148;28;20180;-69
2024/01/16 08:50:13;;;;;;;5.10;4.60;;;-0.30;99.90;;;;;;5018754;28;20266;-64
2024/01/16 08:52:38;;;;;;;5.77;5.20;;;-0.30;99.90;;;;;;5015243;28;20181;-60
2024/01/16 08:55:05;;;;;;;7.50;5.37;;;-0.20;99.90;;;;;;5014385;28;20183;-62
2024/01/16 08:57:30;;;;;;;7.50;5.77;;;-0.10;99.90;;;;;;5017547;28;20187;-62
2024/01/16 08:59:56;;;;;;;17.30;9.67;;;-0.10;99.90;;;;;;5018360;28;20646;-59
2024/01/16 09:02:22;;;;;;;9.90;6.50;;;0.00;99.90;;;;;;5014197;28;20651;-61
2024/01/16 09:04:50;;;;;;;11.90;8.30;;;0.00;99.90;;;;;;5020454;28;20213;-61
2024/01/16 09:07:18;;;;;;;9.67;7.23;;;0.10;99.90;;;;;;5014332;28;20291;-62
2024/01/16 09:09:44;;;;;;;22.27;10.80;;;0.20;99.90;;;;;;5026664;28;20443;-62
2024/01/16 09:12:10;;;;;;;10.83;8.30;;;0.30;99.90;;;;;;5018358;28;20502;-62
2024/01/16 09:14:35;;;;;;;9.40;7.40;;;0.30;99.90;;;;;;5016954;28;20540;-59
2024/01/16 09:17:01;;;;;;;13.77;7.47;;;0.10;99.90;;;;;;5008147;28;20443;-61
2024/01/16 09:19:27;;;;;;;6.20;5.30;;;0.20;99.90;;;;;;5020116;28;20187;-59
2024/01/16 09:21:52;;;;;;;8.80;5.37;;;0.10;99.90;;;;;;5027776;28;20176;-56
2024/01/16 09:24:18;;;;;;;8.13;5.40;;;0.10;99.90;;;;;;5022747;28;20239;-63
2024/01/16 09:26:44;;;;;;;5.83;5.23;;;0.20;99.90;;;;;;5011719;28;20603;-58
2024/01/16 09:29:10;;;;;;;8.17;5.90;;;0.40;99.90;;;;;;5025969;28;20426;-60
2024/01/16 09:31:36;;;;;;;8.30;6.03;;;0.30;99.90;;;;;;5018776;28;20226;-63
2024/01/16 09:34:03;;;;;;;5.60;5.10;;;0.30;99.90;;;;;;5003963;28;20422;-60
2024/01/16 09:36:29;;;;;;;9.60;5.17;;;0.30;99.90;;;;;;5011810;28;20953;-56
2024/01/16 09:38:55;;;;;;;8.33;5.77;;;0.30;99.90;;;;;;5012310;28;20565;-57
2024/01/16 09:41:20;;;;;;;11.00;6.40;;;0.30;99.90;;;;;;5018176;28;20313;-59
2024/01/16 09:43:47;;;;;;;13.03;9.23;;;0.30;99.90;;;;;;5021481;28;20333;-62
2024/01/16 09:46:15;;;;;;;10.63;7.70;;;0.40;99.90;;;;;;5013611;28;20255;-60
2024/01/16 09:48:44;;;;;;;14.47;10.10;;;0.40;99.90;;;;;;5021639;28;20417;-62
2024/01/16 09:51:14;;;;;;;12.30;9.10;;;0.40;99.90;;;;;;5009431;28;20431;-61
2024/01/16 09:53:41;;;;;;;13.20;7.50;;;0.40;99.90;;;;;;5011015;28;20567;-65
2024/01/16 09:56:14;;;;;;;8.00;5.07;;;0.40;99.90;;;;;;5012613;28;20628;-60
2024/01/16 09:58:40;;;;;;;9.43;5.40;;;0.40;99.90;;;;;;5011089;28;20518;-63
2024/01/16 10:01:06;;;;;;;9.20;7.27;;;0.40;99.90;;;;;;5009906;28;20865;-63
2024/01/16 10:03:34;;;;;;;9.57;7.10;;;0.60;99.90;;;;;;5017961;28;21004;-61
2024/01/16 10:06:01;;;;;;;7.40;5.47;;;0.60;99.90;;;;;;5011806;28;20423;-58
2024/01/16 10:08:28;;;;;;;11.37;6.10;;;0.70;99.90;;;;;;5019638;28;20505;-58
2024/01/16 10:10:54;;;;;;;6.77;4.40;;;0.80;99.90;;;;;;5017740;28;20403;-56
2024/01/16 10:13:20;;;;;;;7.00;5.07;;;1.00;99.90;;;;;;5024952;28;20751;-61
2024/01/16 10:15:49;;;;;;;4.50;3.80;;;1.00;99.90;;;;;;5025236;28;20234;-66
2024/01/16 10:18:32;;;;;;;8.67;5.73;;;1.20;99.90;;;;;;5022739;28;20502;-61
2024/01/16 10:20:58;;;;;;;5.63;4.77;;;1.20;99.90;;;;;;5024648;28;21004;-63
2024/01/16 10:23:28;;;;;;;3.87;3.57;;;1.00;99.90;;;;;;5023645;28;20456;-62
2024/01/16 10:26:06;;;;;;;5.27;4.40;;;1.10;99.90;;;;;;5015905;28;20992;-63
2024/01/16 10:28:34;;;;;;;5.13;3.80;;;1.00;99.90;;;;;;5015263;28;20407;-59
2024/01/16 10:31:04;;;;;;;4.87;4.00;;;1.30;99.90;;;;;;5016583;28;20416;-58
2024/01/16 10:33:30;;;;;;;3.73;3.33;;;1.10;99.90;;;;;;4995614;28;20803;-62
2024/01/16 10:36:19;;;;;;;13.43;5.10;;;1.20;99.90;;;;;;5017015;28;20434;-60
2024/01/16 10:38:45;;;;;;;3.63;3.33;;;1.40;99.90;;;;;;5020904;28;20719;-57
2024/01/16 10:41:12;;;;;;;4.27;3.80;;;1.20;99.90;;;;;;5017450;28;20427;-61
2024/01/16 10:43:38;;;;;;;6.00;4.10;;;1.30;99.90;;;;;;5022462;28;20458;-62
2024/01/16 10:46:12;;;;;;;4.80;3.47;;;1.30;99.90;;;;;;5013885;28;20435;-62
2024/01/16 10:48:39;;;;;;;5.17;3.20;;;1.30;99.90;;;;;;5024327;28;20666;-59
2024/01/16 10:51:07;;;;;;;6.63;3.27;;;1.40;99.90;;;;;;5021081;28;20449;-60
2024/01/16 10:53:34;;;;;;;4.90;3.07;;;1.20;99.90;;;;;;5018931;28;20466;-62
2024/01/16 10:56:05;;;;;;;3.90;3.60;;;1.30;99.90;;;;;;5022293;28;20513;-62
2024/01/16 10:58:31;;;;;;;4.57;3.60;;;1.40;99.90;;;;;;5020132;28;20430;-59
2024/01/16 11:01:02;;;;;;;9.83;3.30;;;1.50;99.90;;;;;;5016115;28;20514;-60
2024/01/16 11:03:49;;;;;;;4.23;3.10;;;1.50;99.90;;;;;;5020612;28;20802;-59
2024/01/16 11:06:18;;;;;;;4.87;3.37;;;1.50;99.90;;;;;;5011774;28;20920;-60
2024/01/16 11:08:48;;;;;;;5.33;2.90;;;1.40;99.90;;;;;;5013668;28;20972;-59
2024/01/16 11:11:15;;;;;;;2.60;2.40;;;1.40;99.90;;;;;;5020600;28;20473;-62
2024/01/16 11:13:44;;;;;;;4.80;2.80;;;1.40;99.90;;;;;;5023047;28;20978;-56
2024/01/16 11:16:11;;;;;;;10.13;4.80;;;1.40;99.90;;;;;;5007856;28;20447;-57
2024/01/16 11:18:37;;;;;;;10.97;4.67;;;1.20;99.90;;;;;;5017162;28;20423;-60
2024/01/16 11:21:06;;;;;;;20.90;7.50;;;1.10;99.90;;;;;;5019336;28;20808;-62
2024/01/16 11:23:32;;;;;;;22.63;8.40;;;1.10;99.90;;;;;;5017724;28;20649;-63
2024/01/16 11:25:58;;;;;;;24.30;9.80;;;1.20;99.90;;;;;;5016606;28;20602;-63
2024/01/16 11:28:31;;;;;;;16.70;9.80;;;1.10;99.90;;;;;;5019544;28;20673;-62
2024/01/16 11:30:56;;;;;;;18.67;8.20;;;1.10;99.90;;;;;;5018041;28;20551;-60
2024/01/16 11:33:31;;;;;;;9.83;4.80;;;1.10;99.90;;;;;;5015342;28;20419;-63
2024/01/16 11:35:57;;;;;;;8.87;5.00;;;1.20;99.90;;;;;;5017321;28;20286;-61
2024/01/16 11:38:26;;;;;;;6.57;4.50;;;1.30;99.90;;;;;;5016468;28;20507;-62
2024/01/16 11:40:52;;;;;;;13.13;5.10;;;1.30;99.90;;;;;;5020120;28;20180;-62
2024/01/16 11:43:33;;;;;;;5.53;2.47;;;1.20;99.90;;;;;;5014043;28;20498;-60
2024/01/16 11:46:03;;;;;;;3.83;2.63;;;1.20;99.90;;;;;;5022180;28;20440;-60
2024/01/16 11:48:29;;;;;;;6.40;3.90;;;1.10;99.90;;;;;;5017144;28;20430;-60
2024/01/16 11:50:55;;;;;;;3.30;3.00;;;1.10;99.90;;;;;;5013290;28;20434;-62
2024/01/16 11:53:30;;;;;;;6.00;4.33;;;1.10;99.90;;;;;;5012176;28;20259;-62
2024/01/16 11:56:15;;;;;;;5.37;4.20;;;1.10;99.90;;;;;;5016445;28;20508;-60
2024/01/16 11:59:32;;;;;;;6.10;3.20;;;1.10;99.90;;;;;;5016080;28;20487;-62
2024/01/16 12:01:59;;;;;;;5.53;3.53;;;1.00;99.90;;;;;;5013936;28;20749;-64
2024/01/16 12:04:24;;;;;;;8.87;3.90;;;1.10;99.90;;;;;;5004352;28;20505;-61
2024/01/16 12:07:00;;;;;;;6.83;4.10;;;1.10;99.90;;;;;;5010849;28;20522;-57
2024/01/16 12:09:27;;;;;;;5.20;4.50;;;1.10;99.90;;;;;;5006841;28;20490;-62
2024/01/16 12:12:01;;;;;;;11.73;6.37;;;1.10;99.90;;;;;;5010420;28;20416;-55
2024/01/16 12:14:27;;;;;;;10.87;6.20;;;1.10;99.90;;;;;;5011289;28;20660;-59
2024/01/16 12:17:08;;;;;;;13.53;6.20;;;1.10;99.90;;;;;;5019434;28;20470;-62
2024/01/16 12:19:34;;;;;;;11.73;5.67;;;1.20;99.90;;;;;;5007135;28;20423;-62
2024/01/16 12:22:00;;;;;;;10.27;7.20;;;1.20;99.90;;;;;;5010116;28;20924;-60
2024/01/16 12:24:26;;;;;;;7.47;5.53;;;1.20;99.90;;;;;;5010731;28;20455;-61
2024/01/16 12:26:52;;;;;;;8.60;5.60;;;1.20;99.90;;;;;;5011802;28;20443;-63
2024/01/16 12:29:18;;;;;;;18.80;6.50;;;1.10;99.90;;;;;;5013528;28;20603;-62
2024/01/16 12:31:43;;;;;;;8.27;5.63;;;1.20;99.90;;;;;;5010606;28;20419;-62
2024/01/16 12:34:10;;;;;;;6.50;4.90;;;1.20;99.90;;;;;;5011284;28;20222;-60
2024/01/16 12:36:36;;;;;;;6.77;5.23;;;1.10;99.90;;;;;;5017365;28;20249;-59
2024/01/16 12:39:02;;;;;;;7.77;4.40;;;1.20;99.90;;;;;;5021414;28;20433;-60
2024/01/16 12:41:32;;;;;;;5.07;4.57;;;1.20;99.90;;;;;;5009933;28;20578;-62
2024/01/16 12:43:57;;;;;;;9.03;5.63;;;1.20;99.90;;;;;;5019435;28;20802;-62
2024/01/16 12:46:23;;;;;;;6.30;5.13;;;1.30;99.90;;;;;;5011360;28;20443;-59